Accueil
METAR-TAF:

METAR-TAF

Aéroports :

Aéroport international de Dublin

Dublin, Irlande

latitude: 53-26N, longitude: 006-15W, altitude: 68 m

Observation

Le bulletin a été fait il y a 38 minutes, à 22:30 UTC
Vent 1 kt de direction variable
Température 9°C
Humidité 87%
Pression 1031 hPa
Visibilité 10 km ou plus
pas de nuages en-dessous de 1500 mètres et pas de cumulonimbus.

METAR: EIDW 192230Z VRB01KT CAVOK 09/07 Q1031 NOSIG

Heure: 00:08 (23:08 UTC)

Prévision

Le bulletin a été fait il y a 2 heures et 56 minutes, à 20:12 UTC
Prévision valable du 19 à 18 UTC au 20 à 18 UTC
Vent 3 kt de direction variable
Visibilité 10 km ou plus
Quelques nuages à une hauteur de 1800 ft
Probabilité 30% :
Temporairement
du 20 à 04 UTC au 20 à 06 UTC
Visibilité: 4000 m
brume

TAF: EIDW 192012Z 1918/2018 VRB03KT 9999 FEW018 PROB30 TEMPO 2004/2006 4000 BR

Observations et prévisions météorologiques de plus de 4000 aéroports (messages METAR et TAF).

Les stations disponibles sont représentées par des disques jaunes et rouges sur la carte.

Passer la souris dessus pour voir le nom de la station.

Cliquer dessus pour voir les observations et prévisions météorologiques.

Pour changer de carte: cliquez sur les boutons verts avec une croix noire pour zoomer, sur le bouton vert avec un tiret pour effectuer un zoom arrière, ou sur les flèches vertes pour les cartes adjacentes.


METAR-TAF: